Time,TemperatureF,DewpointF,PressureIn,WindDirection,WindDirectionDegrees,WindSpeedMPH,WindSpeedGustMPH,Humidity,HourlyPrecipIn,Conditions,Clouds,dailyrainin,SoftwareType,DateUTC
2013-03-28 00:00:00,36.0,22.2,30.24,WNW,297,1.0,1.0,57,0.00,,,0.00,Wunderground v.1.15,2013-03-28 04:00:00,
2013-03-28 00:10:00,35.8,21.6,30.25,NW,311,1.0,1.0,56,0.00,,,0.00,Wunderground v.1.15,2013-03-28 04:10:00,
2013-03-28 00:20:00,35.5,21.8,30.24,WNW,301,1.0,1.0,57,0.00,,,0.00,Wunderground v.1.15,2013-03-28 04:20:00,
2013-03-28 00:30:00,35.3,21.6,30.24,NW,316,0.0,1.0,57,0.00,,,0.00,Wunderground v.1.15,2013-03-28 04:30:00,
2013-03-28 00:40:00,35.3,21.6,30.24,NW,316,1.0,1.0,57,0.00,,,0.00,Wunderground v.1.15,2013-03-28 04:40:00,
2013-03-28 00:50:00,35.2,21.9,30.25,NW,306,1.0,1.0,58,0.00,,,0.00,Wunderground v.1.15,2013-03-28 04:50:00,
2013-03-28 01:00:00,34.9,22.0,30.24,WNW,302,0.0,2.0,59,0.00,,,0.00,Wunderground v.1.15,2013-03-28 05:00:00,
2013-03-28 01:10:00,34.6,22.1,30.24,NW,309,1.0,1.0,60,0.00,,,0.00,Wunderground v.1.15,2013-03-28 05:10:00,
2013-03-28 01:20:00,33.8,22.9,30.24,NW,309,0.0,0.0,64,0.00,,,0.00,Wunderground v.1.15,2013-03-28 05:20:00,
2013-03-28 01:30:00,32.8,22.3,30.24,NW,309,0.0,0.0,65,0.00,,,0.00,Wunderground v.1.15,2013-03-28 05:30:00,
2013-03-28 01:40:00,32.1,21.7,30.25,NW,311,0.0,0.0,65,0.00,,,0.00,Wunderground v.1.15,2013-03-28 05:40:00,
2013-03-28 01:50:00,31.7,22.0,30.24,NW,311,0.0,0.0,67,0.00,,,0.00,Wunderground v.1.15,2013-03-28 05:50:00,
2013-03-28 02:00:00,31.2,22.5,30.24,NW,311,0.0,0.0,70,0.00,,,0.00,Wunderground v.1.15,2013-03-28 06:00:00,
2013-03-28 02:10:00,31.1,22.5,30.24,NW,311,0.0,0.0,70,0.00,,,0.00,Wunderground v.1.15,2013-03-28 06:10:00,
2013-03-28 02:20:00,31.5,22.1,30.24,NW,321,1.0,1.0,68,0.00,,,0.00,Wunderground v.1.15,2013-03-28 06:20:00,
2013-03-28 02:30:00,31.9,21.8,30.24,NW,312,0.0,0.0,66,0.00,,,0.00,Wunderground v.1.15,2013-03-28 06:30:00,
2013-03-28 02:40:00,32.3,21.8,30.23,NW,307,1.0,1.0,65,0.00,,,0.00,Wunderground v.1.15,2013-03-28 06:40:00,
2013-03-28 02:50:00,32.5,21.7,30.23,NW,313,0.0,0.0,64,0.00,,,0.00,Wunderground v.1.15,2013-03-28 06:50:00,
2013-03-28 03:00:00,32.3,21.8,30.23,NNW,337,1.0,1.0,65,0.00,,,0.00,Wunderground v.1.15,2013-03-28 07:00:00,
2013-03-28 03:10:00,32.3,21.5,30.23,WNW,294,1.0,1.0,64,0.00,,,0.00,Wunderground v.1.15,2013-03-28 07:10:00,
2013-03-28 03:20:00,32.2,21.7,30.23,NW,312,0.0,0.0,65,0.00,,,0.00,Wunderground v.1.15,2013-03-28 07:20:00,
2013-03-28 03:30:00,31.8,21.7,30.23,NW,312,0.0,0.0,66,0.00,,,0.00,Wunderground v.1.15,2013-03-28 07:30:00,
2013-03-28 03:40:00,31.4,21.7,30.23,NW,316,0.0,0.0,67,0.00,,,0.00,Wunderground v.1.15,2013-03-28 07:40:00,
2013-03-28 03:50:00,31.2,21.5,30.22,WNW,293,0.0,3.0,67,0.00,,,0.00,Wunderground v.1.15,2013-03-28 07:50:00,
2013-03-28 04:00:00,31.5,21.8,30.22,NW,306,1.0,2.0,67,0.00,,,0.00,Wunderground v.1.15,2013-03-28 08:00:00,
2013-03-28 04:10:00,31.4,21.7,30.22,NW,306,0.0,0.0,67,0.00,,,0.00,Wunderground v.1.15,2013-03-28 08:10:00,
2013-03-28 04:20:00,30.7,22.1,30.22,NW,305,0.0,1.0,70,0.00,,,0.00,Wunderground v.1.15,2013-03-28 08:20:00,
2013-03-28 04:30:00,30.1,21.5,30.22,NW,305,0.0,0.0,70,0.00,,,0.00,Wunderground v.1.15,2013-03-28 08:30:00,
2013-03-28 04:40:00,29.5,21.6,30.22,NW,309,0.0,0.0,72,0.00,,,0.00,Wunderground v.1.15,2013-03-28 08:40:00,
2013-03-28 04:50:00,29.6,21.7,30.22,WNW,302,0.0,0.0,72,0.00,,,0.00,Wunderground v.1.15,2013-03-28 08:50:00,
2013-03-28 05:00:00,29.7,21.8,30.22,NW,311,0.0,0.0,72,0.00,,,0.00,Wunderground v.1.15,2013-03-28 09:00:00,
2013-03-28 05:10:00,30.3,22.0,30.22,WNW,296,1.0,1.0,71,0.00,,,0.00,Wunderground v.1.15,2013-03-28 09:10:00,
2013-03-28 05:20:00,31.0,22.0,30.22,NNW,333,1.0,1.0,69,0.00,,,0.00,Wunderground v.1.15,2013-03-28 09:20:00,
2013-03-28 05:30:00,31.8,22.4,30.22,North,355,1.0,1.0,68,0.00,,,0.00,Wunderground v.1.15,2013-03-28 09:30:00,
2013-03-28 05:40:00,32.0,22.3,30.22,WNW,295,1.0,1.0,67,0.00,,,0.00,Wunderground v.1.15,2013-03-28 09:40:00,
2013-03-28 05:50:00,31.9,22.5,30.23,NW,323,1.0,2.0,68,0.00,,,0.00,Wunderground v.1.15,2013-03-28 09:50:00,
2013-03-28 06:00:00,31.7,22.0,30.23,WNW,302,1.0,1.0,67,0.00,,,0.00,Wunderground v.1.15,2013-03-28 10:00:00,
2013-03-28 06:10:00,31.7,22.0,30.23,WNW,296,1.0,1.0,67,0.00,,,0.00,Wunderground v.1.15,2013-03-28 10:10:00,
2013-03-28 06:20:00,31.6,21.9,30.23,NW,304,1.0,1.0,67,0.00,,,0.00,Wunderground v.1.15,2013-03-28 10:20:00,
2013-03-28 06:30:00,31.5,21.8,30.23,NW,304,0.0,0.0,67,0.00,,,0.00,Wunderground v.1.15,2013-03-28 10:30:00,
2013-03-28 06:40:00,30.8,21.5,30.23,NW,304,0.0,0.0,68,0.00,,,0.00,Wunderground v.1.15,2013-03-28 10:40:00,
2013-03-28 06:50:00,30.2,21.6,30.23,NW,304,0.0,0.0,70,0.00,,,0.00,Wunderground v.1.15,2013-03-28 10:50:00,
2013-03-28 07:00:00,29.8,21.5,30.23,NW,305,0.0,0.0,71,0.00,,,0.00,Wunderground v.1.15,2013-03-28 11:00:00,
2013-03-28 07:10:00,29.2,21.6,30.24,NW,305,0.0,0.0,73,0.00,,,0.00,Wunderground v.1.15,2013-03-28 11:10:00,
2013-03-28 07:20:00,28.6,22.0,30.24,NW,305,0.0,0.0,76,0.00,,,0.00,Wunderground v.1.15,2013-03-28 11:20:00,
2013-03-28 07:30:00,28.2,21.6,30.24,NW,305,0.0,0.0,76,0.00,,,0.00,Wunderground v.1.15,2013-03-28 11:30:00,
2013-03-28 07:40:00,28.5,21.6,30.25,NW,305,0.0,1.0,75,0.00,,,0.00,Wunderground v.1.15,2013-03-28 11:40:00,
2013-03-28 07:50:00,29.5,22.2,30.25,NW,313,0.0,0.0,74,0.00,,,0.00,Wunderground v.1.15,2013-03-28 11:50:00,
2013-03-28 08:00:00,30.6,22.3,30.25,NW,315,0.0,0.0,71,0.00,,,0.00,Wunderground v.1.15,2013-03-28 12:00:00,
2013-03-28 08:10:00,32.1,23.1,30.26,West,279,1.0,2.0,69,0.00,,,0.00,Wunderground v.1.15,2013-03-28 12:10:00,
2013-03-28 08:20:00,34.3,24.1,30.26,NNW,330,2.0,2.0,66,0.00,,,0.00,Wunderground v.1.15,2013-03-28 12:20:00,
2013-03-28 08:30:00,35.5,24.5,30.26,NNW,331,2.0,2.0,64,0.00,,,0.00,Wunderground v.1.15,2013-03-28 12:30:00,
2013-03-28 08:40:00,35.9,24.9,30.26,NW,323,1.0,1.0,64,0.00,,,0.00,Wunderground v.1.15,2013-03-28 12:40:00,
2013-03-28 08:50:00,36.2,25.2,30.27,NW,323,1.0,3.0,64,0.00,,,0.00,Wunderground v.1.15,2013-03-28 12:50:00,
2013-03-28 09:00:00,36.7,24.9,30.27,WNW,294,2.0,2.0,62,0.00,,,0.00,Wunderground v.1.15,2013-03-28 13:00:00,
2013-03-28 09:10:00,37.1,24.9,30.27,West,279,2.0,2.0,61,0.00,,,0.00,Wunderground v.1.15,2013-03-28 13:10:00,
2013-03-28 09:20:00,37.3,25.1,30.27,West,259,2.0,5.0,61,0.00,,,0.00,Wunderground v.1.15,2013-03-28 13:20:00,
2013-03-28 09:30:00,38.4,26.1,30.27,West,280,3.0,3.0,61,0.00,,,0.00,Wunderground v.1.15,2013-03-28 13:30:00,
2013-03-28 09:40:00,39.7,25.7,30.27,NW,320,3.0,3.0,57,0.00,,,0.00,Wunderground v.1.15,2013-03-28 13:40:00,
2013-03-28 09:50:00,40.7,27.1,30.27,West,272,3.0,3.0,58,0.00,,,0.00,Wunderground v.1.15,2013-03-28 13:50:00,
2013-03-28 10:00:00,41.5,26.1,30.27,WNW,285,4.0,4.0,54,0.00,,,0.00,Wunderground v.1.15,2013-03-28 14:00:00,
2013-03-28 10:10:00,41.6,25.7,30.27,NNE,15,6.0,6.0,53,0.00,,,0.00,Wunderground v.1.15,2013-03-28 14:10:00,
2013-03-28 10:20:00,42.0,26.1,30.27,West,261,5.0,5.0,53,0.00,,,0.00,Wunderground v.1.15,2013-03-28 14:20:00,
2013-03-28 10:30:00,42.9,26.5,30.27,NE,35,5.0,12.0,52,0.00,,,0.00,Wunderground v.1.15,2013-03-28 14:30:00,
2013-03-28 10:40:00,42.8,25.4,30.27,WSW,248,6.0,6.0,50,0.00,,,0.00,Wunderground v.1.15,2013-03-28 14:40:00,
2013-03-28 10:50:00,43.2,25.3,30.27,NW,317,4.0,4.0,49,0.00,,,0.00,Wunderground v.1.15,2013-03-28 14:50:00,
2013-03-28 11:00:00,43.7,25.3,30.27,NE,40,5.0,5.0,48,0.00,,,0.00,Wunderground v.1.15,2013-03-28 15:00:00,
2013-03-28 11:10:00,44.3,24.8,30.27,NW,322,6.0,13.0,46,0.00,,,0.00,Wunderground v.1.15,2013-03-28 15:10:00,
2013-03-28 11:20:00,44.7,24.6,30.26,North,11,6.0,6.0,45,0.00,,,0.00,Wunderground v.1.15,2013-03-28 15:20:00,
2013-03-28 11:30:00,45.6,24.4,30.26,NNW,334,6.0,8.0,43,0.00,,,0.00,Wunderground v.1.15,2013-03-28 15:30:00,
2013-03-28 11:40:00,45.9,24.6,30.26,NE,53,6.0,6.0,43,0.00,,,0.00,Wunderground v.1.15,2013-03-28 15:40:00,
2013-03-28 11:50:00,47.2,25.3,30.25,NNW,338,4.0,4.0,42,0.00,,,0.00,Wunderground v.1.15,2013-03-28 15:50:00,
2013-03-28 12:00:00,47.5,23.7,30.25,NNW,338,6.0,6.0,39,0.00,,,0.00,Wunderground v.1.15,2013-03-28 16:00:00,
2013-03-28 12:10:00,48.2,23.1,30.25,NNW,338,5.0,7.0,37,0.00,,,0.00,Wunderground v.1.15,2013-03-28 16:10:00,
2013-03-28 12:20:00,48.5,24.6,30.25,West,264,4.0,10.0,39,0.00,,,0.00,Wunderground v.1.15,2013-03-28 16:20:00,
2013-03-28 12:30:00,48.0,23.6,30.25,NNE,12,7.0,7.0,38,0.00,,,0.00,Wunderground v.1.15,2013-03-28 16:30:00,
2013-03-28 12:40:00,48.5,24.0,30.24,NNE,15,6.0,6.0,38,0.00,,,0.00,Wunderground v.1.15,2013-03-28 16:40:00,
2013-03-28 12:50:00,49.6,23.7,30.24,North,355,4.0,9.0,36,0.00,,,0.00,Wunderground v.1.15,2013-03-28 16:50:00,
2013-03-28 13:00:00,49.4,23.5,30.23,North,9,5.0,8.0,36,0.00,,,0.00,Wunderground v.1.15,2013-03-28 17:00:00,
2013-03-28 13:10:00,49.9,25.3,30.23,NW,314,6.0,8.0,38,0.00,,,0.00,Wunderground v.1.15,2013-03-28 17:10:00,
2013-03-28 13:20:00,50.0,23.4,30.23,NW,324,5.0,5.0,35,0.00,,,0.00,Wunderground v.1.15,2013-03-28 17:20:00,
2013-03-28 13:30:00,50.3,24.3,30.22,North,349,5.0,5.0,36,0.00,,,0.00,Wunderground v.1.15,2013-03-28 17:30:00,
2013-03-28 13:40:00,51.1,23.7,30.22,NNW,335,4.0,4.0,34,0.00,,,0.00,Wunderground v.1.15,2013-03-28 17:40:00,
2013-03-28 13:50:00,51.1,23.7,30.22,North,360,5.0,5.0,34,0.00,,,0.00,Wunderground v.1.15,2013-03-28 17:50:00,
2013-03-28 14:00:00,51.1,24.4,30.22,NNW,335,6.0,6.0,35,0.00,,,0.00,Wunderground v.1.15,2013-03-28 18:00:00,
2013-03-28 14:10:00,51.5,26.1,30.21,NW,309,5.0,5.0,37,0.00,,,0.00,Wunderground v.1.15,2013-03-28 18:10:00,
2013-03-28 14:20:00,52.1,25.9,30.21,West,278,6.0,6.0,36,0.00,,,0.00,Wunderground v.1.15,2013-03-28 18:20:00,
2013-03-28 14:30:00,51.8,25.0,30.21,WNW,293,7.0,7.0,35,0.00,,,0.00,Wunderground v.1.15,2013-03-28 18:30:00,
2013-03-28 14:40:00,52.9,24.5,30.20,West,277,5.0,10.0,33,0.00,,,0.00,Wunderground v.1.15,2013-03-28 18:40:00,
2013-03-28 14:50:00,52.8,24.5,30.20,North,5,6.0,8.0,33,0.00,,,0.00,Wunderground v.1.15,2013-03-28 18:50:00,
2013-03-28 15:00:00,53.5,25.8,30.19,NNE,28,5.0,6.0,34,0.00,,,0.00,Wunderground v.1.15,2013-03-28 19:00:00,
2013-03-28 15:10:00,53.3,24.9,30.19,NNE,15,5.0,8.0,33,0.00,,,0.00,Wunderground v.1.15,2013-03-28 19:10:00,
2013-03-28 15:20:00,53.3,24.9,30.19,North,360,5.0,10.0,33,0.00,,,0.00,Wunderground v.1.15,2013-03-28 19:20:00,
2013-03-28 15:30:00,54.0,26.2,30.18,West,269,6.0,7.0,34,0.00,,,0.00,Wunderground v.1.15,2013-03-28 19:30:00,
2013-03-28 15:40:00,54.4,25.1,30.18,WNW,296,5.0,9.0,32,0.00,,,0.00,Wunderground v.1.15,2013-03-28 19:40:00,
2013-03-28 15:50:00,54.1,24.1,30.18,NNW,334,6.0,6.0,31,0.00,,,0.00,Wunderground v.1.15,2013-03-28 19:50:00,
2013-03-28 16:00:00,54.1,23.3,30.18,East,82,5.0,5.0,30,0.00,,,0.00,Wunderground v.1.15,2013-03-28 20:00:00,
2013-03-28 16:10:00,54.2,23.4,30.18,WNW,300,4.0,4.0,30,0.00,,,0.00,Wunderground v.1.15,2013-03-28 20:10:00,
2013-03-28 16:20:00,54.1,24.1,30.18,NNW,330,6.0,6.0,31,0.00,,,0.00,Wunderground v.1.15,2013-03-28 20:20:00,
2013-03-28 16:30:00,55.0,24.1,30.18,West,264,5.0,11.0,30,0.00,,,0.00,Wunderground v.1.15,2013-03-28 20:30:00,
2013-03-28 18:30:00,53.8,23.1,30.19,North,355,3.0,3.0,30,0.00,,,0.00,Wunderground v.1.15,2013-03-28 22:30:00,
2013-03-28 18:40:00,53.6,22.9,30.19,North,355,3.0,3.0,30,0.00,,,0.00,Wunderground v.1.15,2013-03-28 22:40:00,
2013-03-28 18:50:00,52.9,23.8,30.20,NNE,17,4.0,4.0,32,0.00,,,0.00,Wunderground v.1.15,2013-03-28 22:50:00,
2013-03-28 19:00:00,52.4,22.6,30.20,NE,42,4.0,4.0,31,0.00,,,0.00,Wunderground v.1.15,2013-03-28 23:00:00,
2013-03-28 19:10:00,51.8,22.8,30.21,WNW,303,4.0,4.0,32,0.00,,,0.00,Wunderground v.1.15,2013-03-28 23:10:00,
2013-03-28 19:20:00,51.1,23.0,30.21,West,277,4.0,4.0,33,0.00,,,0.00,Wunderground v.1.15,2013-03-28 23:20:00,
2013-03-28 19:30:00,50.3,23.7,30.22,NNW,332,3.0,3.0,35,0.00,,,0.00,Wunderground v.1.15,2013-03-28 23:30:00,
2013-03-28 19:40:00,49.9,23.3,30.22,WNW,300,3.0,3.0,35,0.00,,,0.00,Wunderground v.1.15,2013-03-28 23:40:00,
2013-03-28 19:50:00,49.3,23.4,30.23,NW,322,2.0,2.0,36,0.00,,,0.00,Wunderground v.1.15,2013-03-28 23:50:00,
2013-03-28 20:00:00,48.8,23.6,30.23,NNW,336,1.0,1.0,37,0.00,,,0.00,Wunderground v.1.15,2013-03-29 00:00:00,
2013-03-28 20:10:00,48.0,24.2,30.23,NW,325,1.0,1.0,39,0.00,,,0.00,Wunderground v.1.15,2013-03-29 00:10:00,
2013-03-28 20:20:00,47.1,24.0,30.24,NNW,346,1.0,1.0,40,0.00,,,0.00,Wunderground v.1.15,2013-03-29 00:20:00,
2013-03-28 20:30:00,46.5,24.0,30.24,North,355,1.0,1.0,41,0.00,,,0.00,Wunderground v.1.15,2013-03-29 00:30:00,
2013-03-28 20:40:00,45.1,23.9,30.24,North,355,0.0,0.0,43,0.00,,,0.00,Wunderground v.1.15,2013-03-29 00:40:00,
2013-03-28 20:50:00,44.1,25.6,30.25,North,355,0.0,0.0,48,0.00,,,0.00,Wunderground v.1.15,2013-03-29 00:50:00,
2013-03-28 21:00:00,43.3,24.4,30.25,North,355,0.0,0.0,47,0.00,,,0.00,Wunderground v.1.15,2013-03-29 01:00:00,
2013-03-28 21:10:00,42.7,24.8,30.26,North,355,0.0,0.0,49,0.00,,,0.00,Wunderground v.1.15,2013-03-29 01:10:00,
2013-03-28 21:20:00,41.6,25.3,30.26,North,355,0.0,0.0,52,0.00,,,0.00,Wunderground v.1.15,2013-03-29 01:20:00,
2013-03-28 21:30:00,41.4,24.6,30.26,North,355,0.0,0.0,51,0.00,,,0.00,Wunderground v.1.15,2013-03-29 01:30:00,
2013-03-28 21:40:00,41.4,25.5,30.26,North,355,0.0,0.0,53,0.00,,,0.00,Wunderground v.1.15,2013-03-29 01:40:00,
2013-03-28 21:50:00,40.5,25.1,30.27,North,355,0.0,0.0,54,0.00,,,0.00,Wunderground v.1.15,2013-03-29 01:50:00,
2013-03-28 22:00:00,39.2,27.7,30.27,North,355,0.0,0.0,63,0.00,,,0.00,Wunderground v.1.15,2013-03-29 02:00:00,
2013-03-28 22:10:00,38.4,25.7,30.27,North,355,0.0,0.0,60,0.00,,,0.00,Wunderground v.1.15,2013-03-29 02:10:00,
2013-03-28 22:20:00,37.8,25.5,30.28,North,355,0.0,0.0,61,0.00,,,0.00,Wunderground v.1.15,2013-03-29 02:20:00,
2013-03-28 22:30:00,37.1,25.7,30.28,North,355,0.0,0.0,63,0.00,,,0.00,Wunderground v.1.15,2013-03-29 02:30:00,
2013-03-28 22:40:00,36.7,24.9,30.29,North,355,0.0,0.0,62,0.00,,,0.00,Wunderground v.1.15,2013-03-29 02:40:00,
2013-03-28 22:50:00,35.7,25.4,30.29,North,355,0.0,0.0,66,0.00,,,0.00,Wunderground v.1.15,2013-03-29 02:50:00,
2013-03-28 23:00:00,35.7,25.4,30.29,North,355,0.0,0.0,66,0.00,,,0.00,Wunderground v.1.15,2013-03-29 03:00:00,
2013-03-28 23:10:00,35.6,25.0,30.30,North,355,0.0,0.0,65,0.00,,,0.00,Wunderground v.1.15,2013-03-29 03:10:00,
2013-03-28 23:20:00,35.2,25.7,30.30,North,355,0.0,0.0,68,0.00,,,0.00,Wunderground v.1.15,2013-03-29 03:20:00,
2013-03-28 23:30:00,35.3,26.1,30.30,North,355,0.0,0.0,69,0.00,,,0.00,Wunderground v.1.15,2013-03-29 03:30:00,
2013-03-28 23:40:00,35.4,26.6,30.30,North,355,0.0,0.0,70,0.00,,,0.00,Wunderground v.1.15,2013-03-29 03:40:00,
2013-03-28 23:50:00,35.0,25.9,30.30,North,355,0.0,0.0,69,0.00,,,0.00,Wunderground v.1.15,2013-03-29 03:50:00,